Terminal Aerodrome Forecast
Issued by NWS Corpus Christi, TX

Home | Current Version | Previous Version | Text Only | Print | Product List | Glossary On
Versions: 1 2 3 4 5 6 7 8 9 10 11 12 13 14 15 16 17 18 19
574
FTUS44 KCRP 262334
TAFVCT
TAF
KVCT 262334Z 2700/2724 16020G25KT P6SM SCT022
      TEMPO 2702/2706 BKN015
     FM270600 15006KT 5SM BR BKN008
      TEMPO 2710/2714 2SM BR BKN005
     FM271500 16007KT 6SM BR BKN015 BKN022
     FM271800 17012KT P6SM BKN025
     FM272000 16015G20KT P6SM SCT025=

USA.gov is the U.S. government's official web portal to all federal, state and local government web resources and services.